Time;durP1;ratioP1;P1;durP2;ratioP2;P2;SDS_P1;SDS_P2;PMS_P1;PMS_P2;Temp;Humidity;BMP_temperature;BMP_pressure;BME280_temperature;BME280_humidity;BME280_pressure;Samples;Min_cycle;Max_cycle;Signal;HPM_P1;HPM_P2
2023/06/14 00:00:43;;;;;;;7.93;5.70;;;13.90;93.50;;;;;;5072327;28;20401;-70
2023/06/14 00:03:10;;;;;;;6.07;4.73;;;13.90;93.50;;;;;;5072281;28;20809;-68
2023/06/14 00:05:42;;;;;;;5.67;5.10;;;13.90;97.80;;;;;;5072216;28;20436;-68
2023/06/14 00:08:09;;;;;;;8.73;4.50;;;13.90;99.90;;;;;;5073075;28;20485;-70
2023/06/14 00:10:35;;;;;;;10.20;4.90;;;13.80;99.90;;;;;;5071286;28;20434;-70
2023/06/14 00:13:04;;;;;;;10.93;5.00;;;13.80;99.90;;;;;;5071708;28;20436;-68
2023/06/14 00:15:33;;;;;;;8.20;5.40;;;13.90;99.90;;;;;;5072995;28;20754;-68
2023/06/14 00:18:00;;;;;;;10.93;4.87;;;13.90;99.90;;;;;;5072896;28;20979;-67
2023/06/14 00:20:27;;;;;;;8.67;5.40;;;13.80;99.90;;;;;;5071120;28;20404;-67
2023/06/14 00:22:54;;;;;;;10.87;5.87;;;13.80;99.90;;;;;;5072886;28;20424;-68
2023/06/14 00:25:22;;;;;;;6.57;5.30;;;13.80;99.90;;;;;;5072131;28;20428;-70
2023/06/14 00:27:48;;;;;;;7.70;5.20;;;13.80;99.90;;;;;;5072815;28;20401;-68
2023/06/14 00:30:14;;;;;;;9.77;5.37;;;13.80;99.90;;;;;;5074291;28;20419;-67
2023/06/14 00:32:40;;;;;;;7.33;5.73;;;13.80;99.90;;;;;;5077174;28;20162;-67
2023/06/14 00:35:07;;;;;;;7.47;5.43;;;13.80;99.90;;;;;;5074842;28;20998;-71
2023/06/14 00:37:33;;;;;;;13.00;6.70;;;13.80;99.90;;;;;;5075327;28;20612;-71
2023/06/14 00:39:59;;;;;;;6.30;5.20;;;13.70;99.90;;;;;;5075317;28;20436;-68
2023/06/14 00:42:26;;;;;;;11.80;5.77;;;13.70;99.90;;;;;;5076135;28;20684;-71
2023/06/14 00:44:51;;;;;;;6.43;5.60;;;13.70;99.90;;;;;;5075596;28;20293;-70
2023/06/14 00:47:18;;;;;;;11.20;6.27;;;13.70;99.90;;;;;;5076929;28;20443;-70
2023/06/14 00:49:55;;;;;;;7.63;6.70;;;13.70;99.90;;;;;;5074830;28;20996;-70
2023/06/14 00:52:22;;;;;;;11.60;6.30;;;13.60;99.90;;;;;;5075324;28;20431;-71
2023/06/14 00:54:48;;;;;;;7.10;6.23;;;13.60;99.90;;;;;;5075454;28;20507;-71
2023/06/14 00:57:14;;;;;;;7.80;5.93;;;13.60;99.90;;;;;;5075780;28;20448;-70
2023/06/14 00:59:44;;;;;;;6.67;5.93;;;13.60;99.90;;;;;;5076386;28;20401;-71
2023/06/14 01:02:11;;;;;;;7.20;6.40;;;13.60;99.90;;;;;;5074149;28;20178;-68
2023/06/14 01:04:38;;;;;;;10.60;5.97;;;13.60;99.90;;;;;;5075597;28;20449;-67
2023/06/14 01:07:18;;;;;;;15.97;7.73;;;13.60;99.90;;;;;;5076288;28;20404;-68
2023/06/14 01:09:50;;;;;;;7.27;5.33;;;13.60;99.90;;;;;;5076242;28;20402;-67
2023/06/14 01:12:39;;;;;;;7.20;5.97;;;13.50;99.90;;;;;;5075014;28;20368;-68
2023/06/14 01:15:05;;;;;;;9.60;5.90;;;13.50;99.90;;;;;;5074836;28;20451;-71
2023/06/14 01:17:31;;;;;;;8.80;6.47;;;13.50;99.90;;;;;;5075125;28;20464;-71
2023/06/14 01:20:09;;;;;;;8.93;6.57;;;13.60;99.90;;;;;;5075894;28;20397;-70
2023/06/14 01:22:36;;;;;;;6.60;5.60;;;13.50;99.90;;;;;;5076018;28;20456;-70
2023/06/14 01:25:01;;;;;;;9.00;7.17;;;13.50;99.90;;;;;;5074437;28;20496;-73
2023/06/14 01:27:32;;;;;;;8.50;6.20;;;13.50;99.90;;;;;;5073676;28;20522;-71
2023/06/14 01:29:59;;;;;;;11.47;6.43;;;13.50;99.90;;;;;;5075437;28;20175;-73
2023/06/14 01:32:26;;;;;;;7.70;6.87;;;13.40;99.90;;;;;;5074524;28;20408;-67
2023/06/14 01:34:52;;;;;;;9.30;7.30;;;13.40;99.90;;;;;;5075809;28;20444;-70
2023/06/14 01:37:20;;;;;;;6.80;6.10;;;13.40;99.90;;;;;;5075755;28;20987;-68
2023/06/14 01:39:47;;;;;;;9.20;7.10;;;13.30;99.90;;;;;;5059418;28;20523;-68
2023/06/14 01:42:13;;;;;;;11.83;7.43;;;13.40;99.90;;;;;;5074763;28;20397;-70
2023/06/14 01:44:41;;;;;;;15.87;6.87;;;13.30;99.90;;;;;;5075445;28;20447;-71
2023/06/14 01:47:07;;;;;;;11.40;7.27;;;13.20;99.90;;;;;;5075590;28;20479;-67
2023/06/14 01:49:35;;;;;;;8.47;5.90;;;13.20;99.90;;;;;;5074085;28;20405;-68
2023/06/14 01:52:02;;;;;;;7.57;6.67;;;13.20;99.90;;;;;;5073011;28;20935;-72
2023/06/14 01:54:29;;;;;;;8.23;6.00;;;13.20;99.90;;;;;;5075344;28;20481;-69
2023/06/14 01:56:55;;;;;;;9.70;6.53;;;13.20;99.90;;;;;;5075315;28;20170;-70
2023/06/14 01:59:20;;;;;;;11.80;5.37;;;13.20;99.90;;;;;;5075436;28;20393;-71
2023/06/14 02:01:46;;;;;;;12.67;6.63;;;13.20;99.90;;;;;;5074480;28;20401;-71
2023/06/14 02:04:12;;;;;;;8.03;6.47;;;13.20;99.90;;;;;;5075250;28;20673;-71
2023/06/14 02:06:38;;;;;;;8.00;6.50;;;13.20;99.90;;;;;;5074343;28;20221;-69
2023/06/14 02:09:03;;;;;;;11.73;6.70;;;13.10;99.90;;;;;;5074393;28;20424;-69
2023/06/14 02:11:29;;;;;;;12.10;6.80;;;13.00;99.90;;;;;;5074269;28;20902;-70
2023/06/14 02:13:56;;;;;;;10.80;6.13;;;13.00;99.90;;;;;;5075103;28;20186;-67
2023/06/14 02:16:22;;;;;;;7.80;5.80;;;13.00;99.90;;;;;;5074287;28;20505;-71
2023/06/14 02:18:48;;;;;;;8.10;6.87;;;12.90;99.90;;;;;;5074837;28;20998;-68
2023/06/14 02:21:14;;;;;;;9.53;6.63;;;12.80;99.90;;;;;;5073299;28;20435;-71
2023/06/14 02:23:40;;;;;;;6.47;5.60;;;12.80;99.90;;;;;;5074818;28;20438;-68
2023/06/14 02:26:06;;;;;;;9.93;6.20;;;12.80;99.90;;;;;;5074967;28;20388;-69
2023/06/14 02:28:31;;;;;;;10.03;6.40;;;12.80;99.90;;;;;;5074437;28;20404;-72
2023/06/14 02:30:57;;;;;;;8.33;6.60;;;12.90;99.90;;;;;;5073232;28;20270;-68
2023/06/14 02:33:23;;;;;;;10.27;6.30;;;12.90;99.90;;;;;;5074743;28;20182;-72
2023/06/14 02:35:49;;;;;;;14.20;5.50;;;13.00;99.90;;;;;;5073995;28;20531;-71
2023/06/14 02:38:15;;;;;;;6.80;5.10;;;13.00;99.90;;;;;;5074534;28;20190;-68
2023/06/14 02:40:42;;;;;;;8.87;4.50;;;13.00;99.90;;;;;;5073809;28;20835;-69
2023/06/14 02:43:08;;;;;;;5.07;4.57;;;13.00;99.90;;;;;;5074298;28;20209;-70
2023/06/14 02:45:34;;;;;;;7.87;4.63;;;13.10;99.90;;;;;;5074025;28;20458;-68
2023/06/14 02:48:00;;;;;;;13.33;6.13;;;13.20;99.90;;;;;;5074254;28;20396;-67
2023/06/14 02:50:28;;;;;;;7.57;5.07;;;13.20;99.90;;;;;;5072547;28;20432;-71
2023/06/14 02:52:55;;;;;;;8.27;5.63;;;13.20;99.90;;;;;;5073629;28;20190;-68
2023/06/14 02:55:21;;;;;;;5.37;4.87;;;13.20;99.90;;;;;;5074308;28;20934;-71
2023/06/14 02:57:48;;;;;;;9.80;5.63;;;13.30;99.90;;;;;;5074091;28;20448;-68
2023/06/14 03:00:14;;;;;;;12.10;5.47;;;13.30;99.90;;;;;;5073317;28;20158;-68
2023/06/14 03:02:39;;;;;;;7.73;5.17;;;13.30;99.90;;;;;;5073448;28;20484;-69
2023/06/14 03:05:07;;;;;;;11.20;5.73;;;13.40;99.90;;;;;;5071176;28;20507;-71
2023/06/14 03:07:32;;;;;;;7.07;4.50;;;13.40;99.90;;;;;;5074053;28;20170;-71
2023/06/14 03:09:58;;;;;;;7.80;5.50;;;13.50;99.90;;;;;;5073758;28;20405;-68
2023/06/14 03:12:24;;;;;;;6.63;4.70;;;13.50;99.90;;;;;;5073308;28;20178;-71
2023/06/14 03:14:51;;;;;;;7.00;4.73;;;13.50;99.90;;;;;;5073859;28;20194;-71
2023/06/14 03:17:17;;;;;;;5.43;4.53;;;13.50;99.90;;;;;;5071636;28;20991;-68
2023/06/14 03:19:43;;;;;;;4.70;4.00;;;13.50;99.90;;;;;;5071711;28;20416;-68
2023/06/14 03:22:11;;;;;;;6.37;4.90;;;13.60;99.90;;;;;;5072617;28;20166;-71
2023/06/14 03:24:37;;;;;;;11.90;5.60;;;13.60;99.90;;;;;;5073649;28;20420;-71
2023/06/14 03:27:03;;;;;;;5.23;4.40;;;13.60;99.90;;;;;;5072731;28;20423;-68
2023/06/14 03:29:29;;;;;;;5.40;4.90;;;13.60;99.90;;;;;;5073520;28;20162;-71
2023/06/14 03:32:03;;;;;;;6.90;5.03;;;13.60;99.90;;;;;;5070699;28;20442;-71
2023/06/14 03:34:29;;;;;;;6.40;4.47;;;13.60;99.90;;;;;;5073538;28;20429;-68
2023/06/14 03:36:55;;;;;;;6.00;4.87;;;13.60;99.90;;;;;;5072921;28;21110;-71
2023/06/14 03:39:21;;;;;;;6.83;4.87;;;13.60;99.90;;;;;;5073071;28;20454;-70
2023/06/14 03:41:46;;;;;;;6.10;3.97;;;13.60;99.90;;;;;;5072534;28;20413;-68
2023/06/14 03:44:15;;;;;;;6.23;5.33;;;13.60;99.90;;;;;;5073252;28;20201;-71
2023/06/14 03:46:41;;;;;;;5.07;4.50;;;13.70;99.90;;;;;;5072600;28;20792;-73
2023/06/14 03:49:07;;;;;;;7.80;5.23;;;13.70;99.90;;;;;;5073390;28;20404;-68
2023/06/14 03:51:35;;;;;;;7.20;5.20;;;13.70;99.90;;;;;;5072338;28;20162;-70
2023/06/14 03:54:01;;;;;;;5.33;4.23;;;13.70;99.90;;;;;;5072545;28;20870;-69
2023/06/14 03:56:26;;;;;;;6.57;4.50;;;13.70;99.90;;;;;;5073225;28;20419;-71
2023/06/14 03:58:52;;;;;;;5.93;4.40;;;13.70;99.90;;;;;;5073133;28;20452;-68
2023/06/14 04:01:18;;;;;;;6.27;4.53;;;13.70;99.90;;;;;;5070911;28;20236;-68
2023/06/14 04:03:44;;;;;;;5.30;4.40;;;13.70;99.90;;;;;;5071275;28;20198;-68
2023/06/14 04:06:09;;;;;;;8.30;5.03;;;13.80;99.90;;;;;;5072906;28;20170;-69
2023/06/14 04:08:35;;;;;;;4.40;4.00;;;13.80;99.90;;;;;;5073242;28;20244;-71
2023/06/14 04:11:01;;;;;;;6.10;4.17;;;13.80;99.90;;;;;;5072201;28;20615;-71
2023/06/14 04:13:27;;;;;;;5.20;4.70;;;13.80;99.90;;;;;;5072651;28;20194;-69
2023/06/14 04:15:53;;;;;;;6.73;5.03;;;13.80;99.90;;;;;;5070918;28;20438;-71
2023/06/14 04:18:19;;;;;;;5.87;5.30;;;13.90;99.90;;;;;;5072102;28;20210;-68
2023/06/14 04:20:45;;;;;;;6.53;5.03;;;13.90;99.90;;;;;;5072100;28;20174;-72
2023/06/14 04:23:21;;;;;;;7.30;5.00;;;14.00;99.90;;;;;;5073166;28;20884;-71
2023/06/14 04:25:47;;;;;;;7.60;5.57;;;14.00;99.90;;;;;;5072898;28;20189;-69
2023/06/14 04:28:15;;;;;;;9.53;5.20;;;14.00;99.90;;;;;;5071924;28;20872;-71
2023/06/14 04:30:41;;;;;;;7.30;5.83;;;14.10;99.90;;;;;;5071304;28;20532;-71
2023/06/14 04:33:07;;;;;;;10.00;5.60;;;14.00;99.90;;;;;;5071809;28;21015;-71
2023/06/14 04:35:35;;;;;;;7.73;5.17;;;14.10;99.90;;;;;;5071967;28;20404;-71
2023/06/14 04:38:04;;;;;;;9.23;5.47;;;14.10;99.90;;;;;;5072741;28;20434;-69
2023/06/14 04:40:33;;;;;;;6.43;5.40;;;14.10;99.90;;;;;;5071974;28;20396;-68
2023/06/14 04:42:59;;;;;;;8.20;5.73;;;14.10;99.90;;;;;;5071710;28;20513;-68
2023/06/14 04:45:32;;;;;;;9.20;6.53;;;14.20;99.90;;;;;;5071664;28;20904;-71
2023/06/14 04:47:59;;;;;;;12.30;5.87;;;14.20;99.90;;;;;;5072637;28;20267;-70
2023/06/14 04:50:25;;;;;;;10.60;5.70;;;14.30;99.90;;;;;;5071836;28;20403;-68
2023/06/14 04:52:51;;;;;;;6.07;4.70;;;14.30;99.90;;;;;;5071281;28;20962;-69
2023/06/14 04:55:19;;;;;;;6.73;5.43;;;14.30;99.90;;;;;;5071911;28;20397;-71
2023/06/14 04:57:45;;;;;;;10.17;6.17;;;14.30;99.90;;;;;;5068766;28;20468;-68
2023/06/14 05:00:12;;;;;;;12.60;7.90;;;14.40;99.90;;;;;;5071682;28;20747;-71
2023/06/14 05:02:37;;;;;;;8.70;6.60;;;14.40;99.90;;;;;;5072557;28;20566;-69
2023/06/14 05:05:07;;;;;;;9.00;5.50;;;14.40;99.90;;;;;;5072562;28;20411;-71
2023/06/14 05:07:33;;;;;;;7.50;5.10;;;14.40;99.90;;;;;;5072538;28;20257;-68
2023/06/14 05:09:59;;;;;;;14.50;5.63;;;14.50;99.90;;;;;;5070902;28;20742;-71
2023/06/14 05:12:25;;;;;;;8.77;5.90;;;14.60;1.00;;;;;;5069151;28;20948;-68
2023/06/14 05:14:51;;;;;;;8.03;5.80;;;14.70;99.90;;;;;;5071688;28;20427;-68
2023/06/14 05:17:17;;;;;;;6.60;6.00;;;14.70;99.90;;;;;;5076118;28;20658;-68
2023/06/14 05:19:43;;;;;;;7.43;5.40;;;14.70;99.90;;;;;;5076143;28;20173;-68
2023/06/14 05:22:08;;;;;;;7.20;5.40;;;14.80;99.90;;;;;;5074188;28;20170;-71
2023/06/14 05:24:34;;;;;;;11.50;5.50;;;14.90;99.90;;;;;;5075950;28;20906;-71
2023/06/14 05:27:01;;;;;;;10.00;6.10;;;15.00;99.90;;;;;;5076074;28;20173;-71
2023/06/14 05:29:27;;;;;;;12.90;5.93;;;15.00;99.90;;;;;;5075929;28;20186;-71
2023/06/14 05:31:53;;;;;;;13.63;4.33;;;15.10;99.90;;;;;;5074361;28;20442;-71
2023/06/14 05:34:19;;;;;;;7.60;4.40;;;15.20;99.90;;;;;;5075387;28;20420;-71
2023/06/14 05:36:45;;;;;;;6.07;4.40;;;15.30;99.90;;;;;;5074229;28;20185;-68
2023/06/14 05:39:11;;;;;;;10.13;4.73;;;15.40;99.90;;;;;;5074972;28;20525;-68
2023/06/14 05:41:36;;;;;;;9.70;4.67;;;15.40;99.90;;;;;;5073787;28;20401;-67
2023/06/14 05:44:02;;;;;;;7.13;4.73;;;15.40;99.90;;;;;;5075548;28;20206;-70
2023/06/14 05:46:28;;;;;;;11.30;5.27;;;15.60;99.90;;;;;;5075504;28;20571;-67
2023/06/14 05:48:54;;;;;;;5.13;3.93;;;15.50;99.90;;;;;;5075613;28;20653;-67
2023/06/14 05:51:21;;;;;;;5.30;4.37;;;15.50;99.90;;;;;;5071756;28;20212;-69
2023/06/14 05:53:48;;;;;;;7.07;4.97;;;15.60;99.90;;;;;;5063913;28;20457;-66
2023/06/14 05:56:14;;;;;;;9.63;4.40;;;15.70;99.90;;;;;;5055144;28;20408;-66
2023/06/14 05:58:40;;;;;;;8.67;5.00;;;15.80;99.90;;;;;;5055314;28;20457;-66
2023/06/14 06:01:06;;;;;;;7.00;4.40;;;15.80;99.90;;;;;;5054442;28;20476;-66
2023/06/14 06:03:32;;;;;;;10.20;4.70;;;15.90;99.90;;;;;;5055291;28;21018;-66
2023/06/14 06:05:58;;;;;;;7.23;4.40;;;16.00;99.90;;;;;;5063726;28;20227;-65
2023/06/14 06:08:24;;;;;;;9.27;4.20;;;16.00;99.90;;;;;;5068924;28;20265;-66
2023/06/14 06:10:50;;;;;;;10.40;5.27;;;16.10;99.90;;;;;;5069024;28;20531;-65
2023/06/14 06:13:16;;;;;;;9.53;4.40;;;16.10;99.90;;;;;;5074423;28;20194;-67
2023/06/14 06:15:41;;;;;;;6.17;4.17;;;16.20;99.90;;;;;;5074079;28;20458;-66
2023/06/14 06:18:07;;;;;;;7.70;4.10;;;16.30;99.90;;;;;;5073989;28;20539;-67
2023/06/14 06:20:33;;;;;;;7.87;4.57;;;16.40;99.90;;;;;;5073266;28;20178;-66
2023/06/14 06:22:59;;;;;;;5.83;4.70;;;16.50;99.90;;;;;;5074931;28;20228;-67
2023/06/14 06:25:28;;;;;;;5.53;3.80;;;16.60;99.90;;;;;;5075010;28;20178;-68
2023/06/14 06:27:57;;;;;;;5.27;4.70;;;16.60;99.90;;;;;;5074015;28;20393;-66
2023/06/14 06:30:23;;;;;;;15.97;5.70;;;16.60;99.90;;;;;;5073966;28;21017;-68
2023/06/14 06:32:50;;;;;;;6.93;4.40;;;16.70;99.90;;;;;;5072405;28;20452;-67
2023/06/14 06:35:16;;;;;;;6.77;4.53;;;16.80;94.60;;;;;;5074871;28;20408;-66
2023/06/14 06:37:42;;;;;;;5.07;4.33;;;16.90;94.50;;;;;;5075340;28;20466;-66
2023/06/14 06:40:08;;;;;;;7.30;3.93;;;16.90;94.50;;;;;;5077807;28;20236;-66
2023/06/14 06:42:35;;;;;;;6.83;4.57;;;17.00;66.70;;;;;;5071826;28;20432;-67
2023/06/14 06:45:00;;;;;;;4.63;3.57;;;17.10;49.90;;;;;;5059366;28;21036;-69
2023/06/14 06:47:26;;;;;;;5.40;3.90;;;17.20;36.50;;;;;;5067894;28;20532;-70
2023/06/14 06:49:52;;;;;;;6.17;4.13;;;17.40;27.40;;;;;;5055400;28;20175;-69
2023/06/14 06:52:18;;;;;;;7.13;4.00;;;17.50;3.30;;;;;;5057232;28;20240;-68
2023/06/14 06:54:43;;;;;;;7.00;3.73;;;17.50;1.00;;;;;;5054133;28;20437;-71
2023/06/14 06:57:10;;;;;;;5.57;4.70;;;17.70;1.00;;;;;;5054211;28;20174;-67
2023/06/14 06:59:36;;;;;;;8.73;3.70;;;17.70;1.00;;;;;;5073517;28;20622;-69
2023/06/14 07:02:03;;;;;;;7.83;3.47;;;17.80;1.00;;;;;;5073364;28;20397;-68
2023/06/14 07:04:28;;;;;;;5.23;4.10;;;17.80;1.00;;;;;;5073980;28;20510;-70
2023/06/14 07:06:54;;;;;;;7.70;3.47;;;17.90;1.00;;;;;;5073006;28;20885;-69
2023/06/14 07:09:20;;;;;;;4.90;3.63;;;18.00;1.00;;;;;;5074113;28;20679;-71
2023/06/14 07:11:47;;;;;;;5.90;3.80;;;18.00;1.00;;;;;;5065718;28;20178;-68
2023/06/14 07:14:13;;;;;;;7.07;3.80;;;18.20;1.00;;;;;;5055614;28;20968;-69
2023/06/14 07:16:39;;;;;;;8.97;3.60;;;18.30;1.00;;;;;;5065902;28;20444;-70
2023/06/14 07:19:05;;;;;;;6.10;4.70;;;18.40;1.00;;;;;;5069821;28;20209;-71
2023/06/14 07:21:31;;;;;;;4.83;3.73;;;18.50;1.00;;;;;;5069942;28;20428;-67
2023/06/14 07:23:56;;;;;;;6.03;3.43;;;18.50;1.00;;;;;;5063370;28;20201;-68
2023/06/14 07:26:23;;;;;;;5.27;3.83;;;18.60;1.00;;;;;;5073692;28;20497;-70
2023/06/14 07:28:49;;;;;;;6.30;3.30;;;18.70;1.00;;;;;;5072088;28;20193;-69
2023/06/14 07:31:19;;;;;;;4.30;3.27;;;18.90;1.00;;;;;;5056582;28;20816;-74
2023/06/14 07:33:44;;;;;;;3.20;3.00;;;19.00;1.00;;;;;;5071754;28;20515;-70
2023/06/14 07:36:10;;;;;;;4.53;3.57;;;19.10;1.00;;;;;;5073527;28;20401;-67
2023/06/14 07:38:36;;;;;;;7.00;3.40;;;19.20;1.00;;;;;;5071534;28;20198;-68
2023/06/14 07:41:02;;;;;;;3.50;3.20;;;19.20;1.00;;;;;;5072462;28;20530;-69
2023/06/14 07:43:28;;;;;;;3.83;3.53;;;19.10;1.00;;;;;;5071538;28;20751;-69
2023/06/14 07:45:54;;;;;;;5.53;3.43;;;19.10;1.00;;;;;;5070456;28;20519;-68
2023/06/14 07:48:20;;;;;;;3.60;3.30;;;19.20;1.00;;;;;;5065672;28;20176;-69
2023/06/14 07:50:46;;;;;;;5.03;2.97;;;19.40;1.00;;;;;;5064775;28;20819;-69
2023/06/14 07:53:12;;;;;;;2.97;2.77;;;19.50;1.00;;;;;;5069019;28;20607;-67
2023/06/14 07:55:38;;;;;;;5.33;3.57;;;19.50;1.00;;;;;;5053010;28;20191;-68
2023/06/14 07:58:04;;;;;;;3.60;3.13;;;19.60;1.00;;;;;;5055934;28;20225;-70
2023/06/14 08:00:30;;;;;;;4.40;3.10;;;19.70;1.00;;;;;;5054839;28;20409;-68
2023/06/14 08:02:58;;;;;;;5.43;3.10;;;19.70;1.00;;;;;;5053039;28;20429;-68
2023/06/14 08:05:25;;;;;;;3.40;3.03;;;19.80;1.00;;;;;;5053025;28;20218;-71
2023/06/14 08:07:51;;;;;;;3.60;3.00;;;19.90;1.00;;;;;;5052178;28;20442;-70
2023/06/14 08:10:17;;;;;;;5.70;3.00;;;20.00;1.00;;;;;;5052213;28;20401;-68
2023/06/14 08:12:43;;;;;;;8.70;3.07;;;20.10;1.00;;;;;;5069658;28;20421;-69
2023/06/14 08:15:09;;;;;;;5.03;2.90;;;20.20;1.00;;;;;;5072811;28;20184;-69
2023/06/14 08:17:36;;;;;;;3.17;2.80;;;20.20;1.00;;;;;;5071447;28;20209;-70
2023/06/14 08:20:03;;;;;;;3.73;3.00;;;20.20;1.00;;;;;;5071889;28;20424;-69
2023/06/14 08:22:32;;;;;;;4.03;3.00;;;20.40;1.00;;;;;;5070990;28;20515;-69
2023/06/14 08:24:58;;;;;;;4.37;3.40;;;20.60;1.00;;;;;;5071341;28;20475;-68
2023/06/14 08:27:23;;;;;;;4.57;3.00;;;20.60;1.00;;;;;;5071066;28;20850;-70
2023/06/14 08:29:49;;;;;;;4.00;2.97;;;20.70;1.00;;;;;;5070047;28;20646;-70
2023/06/14 08:32:15;;;;;;;6.53;3.30;;;20.80;1.00;;;;;;5071396;28;20174;-70
2023/06/14 08:34:41;;;;;;;3.33;3.03;;;20.90;1.00;;;;;;5072054;28;20506;-70
2023/06/14 08:37:07;;;;;;;11.70;3.03;;;21.10;1.00;;;;;;5071942;28;20205;-68
2023/06/14 08:39:33;;;;;;;7.43;2.70;;;21.20;1.00;;;;;;5072124;28;20182;-69
2023/06/14 08:42:03;;;;;;;4.83;3.03;;;21.30;1.00;;;;;;5070003;28;20448;-68
2023/06/14 08:44:29;;;;;;;5.13;3.53;;;21.30;1.00;;;;;;5070082;28;20287;-70
2023/06/14 08:46:59;;;;;;;4.10;3.43;;;21.30;1.00;;;;;;5056681;28;20436;-69
2023/06/14 08:49:25;;;;;;;4.43;2.93;;;21.30;1.00;;;;;;5071994;28;20558;-71
2023/06/14 08:51:57;;;;;;;6.40;3.60;;;21.40;1.00;;;;;;5065024;28;20420;-69
2023/06/14 08:54:27;;;;;;;3.60;3.00;;;21.60;1.00;;;;;;5071658;28;20444;-69
2023/06/14 08:56:57;;;;;;;2.93;2.67;;;21.60;1.00;;;;;;5056503;28;20417;-68
2023/06/14 08:59:27;;;;;;;3.23;2.77;;;21.70;1.00;;;;;;5055841;28;20444;-70
2023/06/14 09:01:54;;;;;;;3.50;3.20;;;21.80;1.00;;;;;;5075601;28;20438;-69
2023/06/14 09:04:29;;;;;;;4.97;3.33;;;21.80;99.90;;;;;;5075985;28;20427;-69
2023/06/14 09:06:55;;;;;;;11.03;3.40;;;21.90;99.90;;;;;;5076425;28;20781;-68
2023/06/14 09:09:28;;;;;;;4.27;2.20;;;22.00;99.90;;;;;;5076385;28;20517;-68
2023/06/14 09:11:54;;;;;;;7.33;2.67;;;22.10;99.90;;;;;;5072063;28;20416;-70
2023/06/14 09:14:20;;;;;;;4.37;2.60;;;22.20;99.90;;;;;;5056333;28;20478;-69
2023/06/14 09:16:45;;;;;;;3.47;3.17;;;22.10;99.90;;;;;;5055687;28;20500;-69
2023/06/14 09:19:24;;;;;;;3.70;2.70;;;22.00;99.90;;;;;;5056137;28;20212;-69
2023/06/14 09:21:52;;;;;;;3.33;3.03;;;22.10;99.90;;;;;;5053976;28;20513;-70
2023/06/14 09:24:18;;;;;;;5.27;3.23;;;22.10;99.90;;;;;;5068691;28;20432;-68
2023/06/14 09:26:47;;;;;;;3.93;2.97;;;22.40;99.90;;;;;;5076021;28;20404;-69
2023/06/14 09:29:13;;;;;;;5.60;3.57;;;22.40;99.90;;;;;;5068181;28;20428;-68
2023/06/14 09:31:38;;;;;;;4.00;3.10;;;22.30;99.90;;;;;;5067416;28;20435;-68
2023/06/14 09:34:05;;;;;;;3.43;3.13;;;22.30;99.90;;;;;;5074861;28;20281;-70
2023/06/14 09:36:32;;;;;;;3.53;2.97;;;22.40;99.90;;;;;;5074532;28;20217;-69
2023/06/14 09:39:11;;;;;;;7.77;3.10;;;22.40;99.90;;;;;;5074977;28;20974;-70
2023/06/14 09:41:39;;;;;;;4.57;2.80;;;22.60;99.90;;;;;;5073955;28;20416;-69
2023/06/14 09:44:10;;;;;;;7.23;3.37;;;22.90;99.90;;;;;;5073651;28;20459;-69
2023/06/14 09:46:37;;;;;;;3.70;3.10;;;23.10;99.90;;;;;;5073418;28;20437;-69
2023/06/14 09:49:04;;;;;;;5.40;3.20;;;23.30;99.90;;;;;;5074896;28;20943;-69
2023/06/14 09:51:30;;;;;;;3.70;3.20;;;23.40;99.90;;;;;;5072344;28;20909;-69
2023/06/14 09:54:01;;;;;;;5.77;3.13;;;23.50;99.90;;;;;;5074372;28;20471;-68
2023/06/14 09:56:32;;;;;;;5.50;3.07;;;23.80;99.90;;;;;;5061233;28;20944;-68
2023/06/14 09:58:59;;;;;;;3.57;3.23;;;24.10;99.90;;;;;;5073842;28;20952;-68
2023/06/14 10:01:27;;;;;;;4.90;2.93;;;24.30;99.90;;;;;;5073761;28;20400;-70
2023/06/14 10:04:03;;;;;;;3.03;2.20;;;24.80;99.90;;;;;;5075930;28;20431;-68
2023/06/14 10:06:29;;;;;;;10.70;3.17;;;24.60;99.90;;;;;;5075769;28;20411;-68
2023/06/14 10:08:59;;;;;;;3.37;3.07;;;24.70;99.90;;;;;;5075213;28;20409;-68
2023/06/14 10:11:29;;;;;;;6.43;2.83;;;24.60;99.90;;;;;;5074313;28;20397;-69
2023/06/14 10:13:56;;;;;;;4.00;3.07;;;24.80;99.90;;;;;;5063527;28;20950;-67
2023/06/14 10:16:27;;;;;;;2.50;2.30;;;24.80;99.90;;;;;;5074886;28;20413;-69
2023/06/14 10:19:47;;;;;;;5.73;2.50;;;25.10;99.90;;;;;;5075019;28;20494;-69
2023/06/14 10:22:19;;;;;;;3.40;2.60;;;25.10;99.90;;;;;;5052020;28;20556;-70
2023/06/14 10:24:45;;;;;;;2.93;2.63;;;25.10;99.90;;;;;;5070796;28;20436;-68
2023/06/14 10:27:17;;;;;;;5.20;2.20;;;24.90;99.90;;;;;;5073996;28;20921;-69
2023/06/14 10:29:57;;;;;;;5.50;2.70;;;24.70;99.90;;;;;;5066623;28;20441;-75
2023/06/14 10:32:24;;;;;;;6.63;2.90;;;24.70;99.90;;;;;;5072903;28;20424;-69
2023/06/14 10:34:59;;;;;;;6.67;2.70;;;24.30;99.90;;;;;;5073667;28;20455;-69
2023/06/14 10:37:25;;;;;;;4.13;2.57;;;24.10;99.90;;;;;;5073887;28;20762;-69
2023/06/14 10:39:51;;;;;;;3.00;2.70;;;24.50;99.90;;;;;;5073639;28;20574;-69
2023/06/14 10:42:17;;;;;;;3.60;2.43;;;24.80;99.90;;;;;;5071670;28;20178;-69
2023/06/14 10:44:50;;;;;;;2.07;1.97;;;25.40;99.90;;;;;;5071430;28;20211;-69
2023/06/14 10:47:27;;;;;;;3.43;2.90;;;26.00;99.90;;;;;;5060550;28;20936;-69
2023/06/14 10:50:07;;;;;;;3.50;2.57;;;26.10;99.90;;;;;;5073204;28;20408;-74
2023/06/14 10:52:35;;;;;;;7.07;2.70;;;26.00;99.90;;;;;;5063517;28;20459;-69
2023/06/14 10:55:11;;;;;;;2.70;2.33;;;25.70;99.90;;;;;;5066984;28;20436;-69
2023/06/14 10:57:38;;;;;;;4.03;2.77;;;25.80;99.90;;;;;;5059048;28;20460;-71
2023/06/14 11:00:20;;;;;;;12.90;2.93;;;26.00;99.90;;;;;;5053824;28;20404;-75
2023/06/14 11:03:04;;;;;;;4.17;2.30;;;26.40;99.90;;;;;;5065743;28;20401;-70
2023/06/14 11:05:30;;;;;;;4.93;2.13;;;26.60;99.90;;;;;;5074038;28;20947;-69
2023/06/14 11:08:15;;;;;;;7.83;2.87;;;26.10;99.90;;;;;;5073987;28;20400;-72
2023/06/14 11:10:42;;;;;;;2.40;2.20;;;26.20;99.90;;;;;;5072838;28;20170;-71
2023/06/14 11:13:09;;;;;;;2.80;2.60;;;26.50;99.90;;;;;;5073509;28;20515;-69
2023/06/14 11:15:36;;;;;;;2.57;2.37;;;27.00;99.90;;;;;;5056824;28;20448;-71
2023/06/14 11:18:04;;;;;;;2.90;2.70;;;26.50;99.90;;;;;;5053997;28;20461;-70
2023/06/14 11:20:35;;;;;;;3.33;2.57;;;26.50;99.90;;;;;;5052917;28;20921;-71
2023/06/14 11:23:02;;;;;;;3.63;3.27;;;26.70;99.90;;;;;;5062675;28;20794;-70
2023/06/14 11:25:28;;;;;;;4.80;2.20;;;27.20;99.90;;;;;;5072830;28;20419;-70
2023/06/14 11:27:55;;;;;;;3.63;2.47;;;26.90;99.90;;;;;;5064613;28;20436;-70
2023/06/14 11:30:21;;;;;;;5.57;2.63;;;26.10;99.90;;;;;;5061947;28;20175;-75
2023/06/14 11:32:51;;;;;;;9.93;2.60;;;26.10;99.90;;;;;;5064669;28;20436;-71
2023/06/14 11:35:18;;;;;;;4.20;2.70;;;26.60;99.90;;;;;;5072791;28;20721;-74
2023/06/14 11:37:44;;;;;;;3.23;2.93;;;26.60;99.90;;;;;;5072599;28;20466;-71
2023/06/14 11:40:11;;;;;;;3.40;2.47;;;26.10;99.90;;;;;;5070629;28;20913;-76
2023/06/14 11:42:40;;;;;;;8.20;4.97;;;25.80;99.90;;;;;;5072343;28;20428;-74
2023/06/14 11:45:10;;;;;;;5.43;3.23;;;26.20;99.90;;;;;;5071963;28;20577;-73
2023/06/14 11:47:37;;;;;;;3.47;2.40;;;26.60;99.90;;;;;;5072178;28;20480;-71
2023/06/14 11:50:05;;;;;;;2.50;2.30;;;26.80;99.90;;;;;;5072200;28;20432;-76
2023/06/14 11:52:31;;;;;;;5.83;3.33;;;26.80;99.90;;;;;;5071147;28;20948;-71
2023/06/14 11:54:57;;;;;;;8.20;3.13;;;27.10;99.90;;;;;;5070664;28;20447;-71
2023/06/14 11:57:23;;;;;;;4.90;2.87;;;27.30;99.90;;;;;;5071262;28;20432;-71
2023/06/14 11:59:49;;;;;;;4.83;3.00;;;27.50;99.90;;;;;;5067110;28;20417;-70
2023/06/14 12:02:16;;;;;;;4.13;2.80;;;26.70;99.90;;;;;;5070473;28;20951;-71
2023/06/14 12:04:42;;;;;;;6.03;3.00;;;26.60;99.90;;;;;;5071692;28;20194;-70
2023/06/14 12:07:15;;;;;;;12.03;2.73;;;26.40;99.90;;;;;;5071963;28;20440;-71
2023/06/14 12:09:53;;;;;;;3.60;3.30;;;26.80;99.90;;;;;;5071309;28;20781;-70
2023/06/14 12:12:21;;;;;;;5.30;3.77;;;27.40;99.90;;;;;;5068426;28;20881;-71
2023/06/14 12:14:48;;;;;;;2.87;2.60;;;27.50;99.90;;;;;;5072275;28;20471;-70
2023/06/14 12:17:17;;;;;;;3.97;2.40;;;27.30;99.90;;;;;;5071841;28;20424;-69
2023/06/14 12:19:43;;;;;;;5.67;2.60;;;27.40;99.90;;;;;;5072180;28;20441;-73
2023/06/14 12:22:13;;;;;;;5.13;2.77;;;27.30;99.90;;;;;;5070875;28;20428;-69
2023/06/14 12:24:39;;;;;;;2.80;2.47;;;27.80;99.90;;;;;;5072346;28;20888;-69
2023/06/14 12:27:05;;;;;;;3.97;2.90;;;28.30;99.90;;;;;;5065972;28;20443;-71
2023/06/14 12:29:32;;;;;;;4.50;3.33;;;28.50;99.90;;;;;;5057271;28;20429;-71
2023/06/14 12:31:58;;;;;;;6.63;2.97;;;28.50;99.90;;;;;;5070033;28;20924;-70
2023/06/14 12:34:27;;;;;;;3.90;2.70;;;28.30;99.90;;;;;;5071785;28;20452;-69
2023/06/14 12:36:54;;;;;;;6.77;2.50;;;28.20;99.90;;;;;;5072391;28;20457;-75
2023/06/14 12:39:20;;;;;;;2.60;2.40;;;28.10;99.90;;;;;;5071723;28;20455;-75
2023/06/14 12:41:47;;;;;;;3.00;2.80;;;27.80;99.90;;;;;;5071003;28;20456;-71
2023/06/14 12:44:13;;;;;;;6.03;2.73;;;27.20;99.90;;;;;;5070754;28;20478;-72
2023/06/14 12:46:39;;;;;;;3.47;3.23;;;26.90;99.90;;;;;;5055515;28;20424;-72
2023/06/14 12:49:07;;;;;;;5.07;3.20;;;26.70;99.90;;;;;;5071623;28;20589;-73